Time;durP1;ratioP1;P1;durP2;ratioP2;P2;SDS_P1;SDS_P2;PMS_P1;PMS_P2;Temp;Humidity;BMP_temperature;BMP_pressure;BME280_temperature;BME280_humidity;BME280_pressure;Samples;Min_cycle;Max_cycle;Signal;HPM_P1;HPM_P2
2023/04/20 00:00:00;;;;;;;5.43;3.85;;;;;;;6.57;68.60;98679.69;4138482;28;20296;-51
2023/04/20 00:02:02;;;;;;;6.03;4.25;;;;;;;6.52;69.12;98667.81;4137418;28;20244;-51
2023/04/20 00:04:04;;;;;;;4.53;3.88;;;;;;;6.44;69.24;98668.09;4121015;28;20206;-51
2023/04/20 00:06:06;;;;;;;3.88;3.33;;;;;;;6.28;69.58;98666.72;4136826;28;20708;-51
2023/04/20 00:08:08;;;;;;;5.30;3.90;;;;;;;6.24;70.17;98670.09;4145385;28;20229;-50
2023/04/20 00:10:10;;;;;;;10.40;3.50;;;;;;;6.30;70.80;98663.81;4119779;28;20234;-52
2023/04/20 00:12:12;;;;;;;4.32;3.03;;;;;;;6.26;70.47;98651.69;4140464;28;20268;-50
2023/04/20 00:14:14;;;;;;;4.13;3.28;;;;;;;6.26;70.72;98651.69;4144682;28;20284;-50
2023/04/20 00:16:17;;;;;;;7.32;3.97;;;;;;;6.21;71.07;98643.34;4142835;28;20699;-51
2023/04/20 00:18:19;;;;;;;4.50;3.45;;;;;;;6.33;71.31;98641.59;4135259;28;20240;-51
2023/04/20 00:20:20;;;;;;;4.68;3.30;;;;;;;6.16;71.78;98641.31;4124127;28;20249;-50
2023/04/20 00:22:22;;;;;;;2.80;2.60;;;;;;;6.15;71.99;98633.41;4142181;28;20231;-50
2023/04/20 00:24:24;;;;;;;2.50;2.30;;;;;;;6.06;72.45;98637.41;4143655;28;20201;-50
2023/04/20 00:26:26;;;;;;;7.78;2.95;;;;;;;6.21;72.96;98627.06;4144179;28;20210;-50
2023/04/20 00:28:28;;;;;;;2.58;2.38;;;;;;;5.97;72.47;98627.88;4137822;28;20234;-50
2023/04/20 00:30:30;;;;;;;3.40;2.28;;;;;;;5.96;73.44;98623.47;4143135;28;21002;-50
2023/04/20 00:32:32;;;;;;;3.00;2.67;;;;;;;5.84;73.59;98620.59;4122609;28;20224;-50
2023/04/20 00:34:34;;;;;;;3.63;3.08;;;;;;;5.73;73.88;98612.28;4127672;28;20218;-50
2023/04/20 00:36:36;;;;;;;2.67;2.47;;;;;;;5.72;74.18;98618.78;4139780;28;20201;-50
2023/04/20 00:38:38;;;;;;;4.47;3.70;;;;;;;5.72;74.23;98614.19;4137715;28;20233;-50
2023/04/20 00:40:42;;;;;;;2.90;2.70;;;;;;;5.63;73.89;98612.75;4135082;28;20296;-50
2023/04/20 00:42:44;;;;;;;3.63;2.53;;;;;;;5.58;73.69;98609.03;4149767;28;20344;-51
2023/04/20 00:44:45;;;;;;;3.03;2.40;;;;;;;5.59;74.02;98605.28;4122274;28;20237;-50
2023/04/20 00:46:47;;;;;;;10.77;3.30;;;;;;;5.58;74.81;98598.19;4137382;28;20209;-50
2023/04/20 00:48:53;;;;;;;4.20;2.97;;;;;;;5.51;74.32;98602.81;4138482;28;20297;-50
2023/04/20 00:50:55;;;;;;;3.20;2.40;;;;;;;5.55;75.32;98604.06;4143299;28;20266;-50
2023/04/20 00:52:57;;;;;;;3.50;2.30;;;;;;;5.68;75.97;98601.25;4136359;28;20242;-50
2023/04/20 00:54:59;;;;;;;2.45;2.22;;;;;;;5.68;75.49;98593.09;4138099;28;20241;-50
2023/04/20 00:57:01;;;;;;;3.10;2.85;;;;;;;5.50;75.79;98596.53;4127026;28;20298;-51
2023/04/20 00:59:03;;;;;;;2.33;2.10;;;;;;;5.42;75.68;98593.25;4133988;28;20271;-51
2023/04/20 01:01:04;;;;;;;3.17;2.33;;;;;;;5.37;76.18;98590.34;4120105;28;20205;-50
2023/04/20 01:03:07;;;;;;;2.83;2.60;;;;;;;5.49;76.31;98588.63;4116941;28;20238;-50
2023/04/20 01:05:09;;;;;;;2.65;2.40;;;;;;;5.39;76.27;98582.81;4135625;28;20237;-51
2023/04/20 01:07:11;;;;;;;3.78;1.98;;;;;;;5.20;75.50;98578.31;4143714;28;20611;-50
2023/04/20 01:09:13;;;;;;;2.78;2.28;;;;;;;5.20;76.34;98578.31;4135093;28;20264;-51
2023/04/20 01:11:14;;;;;;;4.00;3.05;;;;;;;5.28;76.27;98575.34;4136192;28;20261;-50
2023/04/20 01:13:16;;;;;;;3.38;3.08;;;;;;;5.29;75.82;98571.63;4136857;28;20301;-50
2023/04/20 01:15:18;;;;;;;5.47;4.22;;;;;;;5.31;75.85;98558.66;4137973;28;20681;-50
2023/04/20 01:17:20;;;;;;;5.00;4.25;;;;;;;5.17;75.52;98562.47;4138191;28;20847;-50
2023/04/20 01:19:21;;;;;;;6.82;5.63;;;;;;;5.11;75.87;98563.34;4137480;28;20237;-50
2023/04/20 01:21:23;;;;;;;6.00;5.00;;;;;;;5.08;76.24;98563.75;4138898;28;20301;-51
2023/04/20 01:23:25;;;;;;;8.90;5.55;;;;;;;5.08;76.49;98552.91;4132593;28;20221;-50
2023/04/20 01:25:27;;;;;;;8.38;5.32;;;;;;;5.04;76.79;98554.41;4142486;28;20667;-51
2023/04/20 01:27:29;;;;;;;6.40;4.80;;;;;;;5.00;77.09;98552.31;4135731;28;20301;-50
2023/04/20 01:29:30;;;;;;;5.10;4.53;;;;;;;4.91;76.91;98551.72;4143243;28;20688;-51
2023/04/20 01:31:32;;;;;;;4.63;3.35;;;;;;;4.86;77.28;98548.00;4136463;28;20292;-50
2023/04/20 01:33:35;;;;;;;3.75;3.20;;;;;;;4.89;77.99;98556.53;4137632;28;20255;-51
2023/04/20 01:35:37;;;;;;;4.03;2.47;;;;;;;4.78;77.90;98551.75;4135738;28;20217;-50
2023/04/20 01:37:39;;;;;;;3.40;3.10;;;;;;;4.92;78.27;98547.97;4136746;28;20661;-51
2023/04/20 01:39:42;;;;;;;4.88;3.17;;;;;;;4.66;77.80;98541.81;4143402;28;20578;-51
2023/04/20 01:41:44;;;;;;;4.53;3.60;;;;;;;4.68;78.00;98548.66;4138522;28;20210;-50
2023/04/20 01:43:46;;;;;;;15.00;10.27;;;;;;;4.35;78.67;98542.44;4137983;28;20217;-50
2023/04/20 01:45:48;;;;;;;26.58;10.98;;;;;;;4.37;78.77;98543.09;4122249;28;20883;-50
2023/04/20 01:47:49;;;;;;;25.33;11.70;;;;;;;4.34;77.60;98532.66;4135150;28;20237;-50
2023/04/20 01:49:51;;;;;;;26.10;11.38;;;;;;;4.57;78.44;98533.06;4133194;28;20233;-50
2023/04/20 01:51:54;;;;;;;18.90;10.32;;;;;;;4.55;78.10;98524.31;4134277;28;20677;-50
2023/04/20 01:53:56;;;;;;;16.92;9.35;;;;;;;4.47;77.81;98521.81;4139821;28;20209;-51
2023/04/20 01:55:57;;;;;;;18.35;10.50;;;;;;;4.49;78.20;98514.31;4135192;28;20592;-50
2023/04/20 01:57:59;;;;;;;16.88;11.32;;;;;;;4.48;78.32;98518.06;4125719;28;20225;-50
2023/04/20 02:00:01;;;;;;;11.40;9.07;;;;;;;4.46;78.80;98525.56;4143620;28;20640;-51
2023/04/20 02:02:03;;;;;;;16.20;9.23;;;;;;;4.49;78.89;98522.44;4137772;28;20656;-50
2023/04/20 02:04:05;;;;;;;16.88;7.65;;;;;;;4.42;78.96;98529.75;4119827;28;20238;-50
2023/04/20 02:06:07;;;;;;;14.90;8.32;;;;;;;4.43;79.07;98520.59;4135793;28;20213;-50
2023/04/20 02:08:09;;;;;;;17.67;9.60;;;;;;;4.55;78.39;98513.47;4135457;28;20249;-51
2023/04/20 02:10:10;;;;;;;12.30;8.70;;;;;;;4.53;78.57;98520.97;4119216;28;20255;-50
2023/04/20 02:12:12;;;;;;;12.63;7.18;;;;;;;4.40;78.33;98523.69;4145182;28;20201;-51
2023/04/20 02:14:14;;;;;;;8.65;6.10;;;;;;;4.29;79.08;98520.81;4145857;28;20205;-50
2023/04/20 02:16:17;;;;;;;7.30;5.18;;;;;;;4.32;79.66;98517.66;4137661;28;20236;-50
2023/04/20 02:18:20;;;;;;;6.13;5.05;;;;;;;4.29;79.88;98523.50;4140138;28;20268;-50
2023/04/20 02:20:22;;;;;;;8.20;5.25;;;;;;;4.31;80.61;98522.25;4137073;28;20217;-50
2023/04/20 02:22:23;;;;;;;6.32;4.10;;;;;;;4.28;80.10;98517.25;4138532;28;20752;-51
2023/04/20 02:24:25;;;;;;;8.77;5.05;;;;;;;4.24;80.58;98513.31;4138881;28;20363;-50
2023/04/20 02:26:27;;;;;;;6.82;4.15;;;;;;;4.17;80.83;98517.91;4146381;28;20209;-50
2023/04/20 02:28:29;;;;;;;7.55;5.22;;;;;;;4.13;80.95;98513.94;4129648;28;20742;-50
2023/04/20 02:30:31;;;;;;;4.60;3.65;;;;;;;4.17;81.53;98517.06;4123051;28;20257;-50
2023/04/20 02:32:33;;;;;;;4.70;3.53;;;;;;;4.21;81.63;98511.00;4146167;28;20206;-50
2023/04/20 02:34:35;;;;;;;4.35;3.75;;;;;;;4.19;81.66;98502.28;4145398;28;20270;-49
2023/04/20 02:36:37;;;;;;;5.10;4.55;;;;;;;4.23;81.01;98500.81;4141560;28;20245;-50
2023/04/20 02:38:39;;;;;;;7.63;5.28;;;;;;;4.09;81.35;98501.88;4140343;28;20424;-50
2023/04/20 02:40:41;;;;;;;4.32;3.92;;;;;;;4.00;81.50;98492.28;4140500;28;20703;-50
2023/04/20 02:42:43;;;;;;;5.30;4.72;;;;;;;3.94;81.59;98493.13;4141413;28;20205;-50
2023/04/20 02:44:44;;;;;;;5.88;4.35;;;;;;;4.04;81.04;98496.25;4138043;28;20304;-50
2023/04/20 02:46:46;;;;;;;4.78;3.72;;;;;;;3.79;81.59;98488.97;4143627;28;20209;-50
2023/04/20 02:48:48;;;;;;;6.00;3.50;;;;;;;3.85;82.09;98494.38;4145435;28;20233;-50
2023/04/20 02:50:50;;;;;;;4.90;4.50;;;;;;;3.77;82.02;98481.06;4124908;28;20229;-50
2023/04/20 02:52:51;;;;;;;8.40;7.25;;;;;;;3.82;81.94;98478.59;4135924;28;20210;-50
2023/04/20 02:54:53;;;;;;;10.95;9.73;;;;;;;3.81;82.65;98486.91;4136272;28;20308;-50
2023/04/20 02:56:55;;;;;;;19.20;15.23;;;;;;;3.93;82.44;98479.81;4128925;28;20206;-50
2023/04/20 02:58:58;;;;;;;13.93;12.32;;;;;;;3.89;82.06;98479.41;4134913;28;20270;-50
2023/04/20 03:01:00;;;;;;;13.50;12.23;;;;;;;3.75;82.28;98477.72;4122202;28;20305;-50
2023/04/20 03:03:02;;;;;;;12.57;11.05;;;;;;;3.88;82.18;98472.31;4125322;28;20214;-50
2023/04/20 03:05:05;;;;;;;11.20;10.10;;;;;;;3.65;82.32;98477.31;4139359;28;20202;-50
2023/04/20 03:07:08;;;;;;;10.55;9.55;;;;;;;3.66;82.83;98462.75;4140702;28;20248;-51
2023/04/20 03:09:10;;;;;;;10.27;9.38;;;;;;;3.69;82.91;98472.31;4136941;28;20221;-50
2023/04/20 03:11:11;;;;;;;7.13;6.53;;;;;;;3.64;83.30;98470.25;4138890;28;20222;-51
2023/04/20 03:13:13;;;;;;;7.20;6.55;;;;;;;3.60;83.77;98468.16;4140381;28;20209;-50
2023/04/20 03:15:16;;;;;;;8.98;7.90;;;;;;;3.57;83.59;98471.28;4145282;28;20217;-50
2023/04/20 03:17:17;;;;;;;8.77;7.53;;;;;;;3.58;84.20;98471.06;4144837;28;20209;-50
2023/04/20 03:19:19;;;;;;;7.20;6.60;;;;;;;3.49;84.47;98468.78;4140496;28;20765;-51
2023/04/20 03:21:21;;;;;;;5.28;4.80;;;;;;;3.35;84.80;98465.19;4143740;28;20217;-50
2023/04/20 03:23:23;;;;;;;6.25;4.82;;;;;;;3.36;84.68;98466.91;4145005;28;20217;-50
2023/04/20 03:25:25;;;;;;;5.88;4.18;;;;;;;3.39;85.06;98465.63;4138169;28;20208;-50
2023/04/20 03:27:27;;;;;;;4.32;3.92;;;;;;;3.42;85.10;98465.22;4124866;28;20787;-51
2023/04/20 03:29:28;;;;;;;4.68;4.22;;;;;;;3.45;85.58;98462.09;4138733;28;20690;-51
2023/04/20 03:31:30;;;;;;;6.63;4.03;;;;;;;3.39;85.71;98466.47;4123122;28;20277;-50
2023/04/20 03:33:32;;;;;;;4.78;4.38;;;;;;;3.31;84.94;98463.13;4129278;28;20214;-51
2023/04/20 03:35:33;;;;;;;4.50;4.10;;;;;;;3.34;85.34;98463.53;4142358;28;20675;-50
2023/04/20 03:37:38;;;;;;;3.65;3.35;;;;;;;3.46;85.68;98456.50;4144662;28;20221;-50
2023/04/20 03:39:40;;;;;;;10.70;3.42;;;;;;;3.37;85.67;98455.03;4144591;28;20607;-51
2023/04/20 03:41:42;;;;;;;3.15;2.95;;;;;;;3.23;85.74;98455.22;4124980;28;20246;-50
2023/04/20 03:43:43;;;;;;;4.30;3.05;;;;;;;3.27;86.12;98449.19;4144095;28;20216;-50
2023/04/20 03:45:45;;;;;;;3.05;2.60;;;;;;;3.19;86.66;98449.38;4134320;28;20219;-51
2023/04/20 03:47:47;;;;;;;3.10;2.90;;;;;;;3.11;86.42;98446.88;4121924;28;20662;-51
2023/04/20 03:49:49;;;;;;;2.80;2.60;;;;;;;3.22;86.49;98443.59;4135656;28;20209;-50
2023/04/20 03:51:51;;;;;;;3.15;2.95;;;;;;;3.23;86.48;98447.94;4121026;28;20277;-51
2023/04/20 03:53:53;;;;;;;3.10;2.90;;;;;;;3.20;86.98;98440.22;4128439;28;20782;-50
2023/04/20 03:55:55;;;;;;;6.40;3.17;;;;;;;3.20;86.79;98442.94;4122558;28;20206;-50
2023/04/20 03:57:56;;;;;;;3.42;3.22;;;;;;;3.13;86.56;98442.09;4134820;28;20243;-50
2023/04/20 03:59:58;;;;;;;2.95;2.75;;;;;;;3.27;86.96;98435.66;4123921;28;20734;-50
2023/04/20 04:02:01;;;;;;;3.92;3.47;;;;;;;3.08;87.36;98441.88;4135860;28;20233;-51
2023/04/20 04:04:03;;;;;;;3.78;3.50;;;;;;;3.11;86.98;98441.47;4137502;28;20631;-50
2023/04/20 04:06:06;;;;;;;6.85;3.58;;;;;;;2.82;87.51;98440.97;4142337;28;20303;-50
2023/04/20 04:08:08;;;;;;;4.65;4.18;;;;;;;2.50;89.02;98441.69;4134040;28;20229;-51
2023/04/20 04:10:10;;;;;;;15.88;4.07;;;;;;;2.27;90.39;98436.59;4122858;28;20241;-50
2023/04/20 04:12:11;;;;;;;3.15;2.95;;;;;;;2.48;90.15;98436.47;4134778;28;20210;-50
2023/04/20 04:14:13;;;;;;;6.38;2.75;;;;;;;2.55;89.35;98442.72;4135932;28;20209;-50
2023/04/20 04:16:15;;;;;;;4.00;3.17;;;;;;;2.61;89.53;98433.81;4138309;28;20308;-50
2023/04/20 04:18:17;;;;;;;4.13;3.70;;;;;;;2.86;88.68;98437.66;4138720;28;20233;-51
2023/04/20 04:20:18;;;;;;;5.93;3.58;;;;;;;2.87;88.87;98433.91;4139374;28;20335;-50
2023/04/20 04:22:20;;;;;;;14.27;3.55;;;;;;;2.91;88.39;98440.59;4134890;28;20242;-50
2023/04/20 04:24:22;;;;;;;9.98;4.45;;;;;;;2.94;88.51;98439.34;4136320;28;20686;-50
2023/04/20 04:26:24;;;;;;;7.60;3.35;;;;;;;2.96;88.20;98443.53;4120594;28;20209;-50
2023/04/20 04:28:25;;;;;;;16.92;3.75;;;;;;;2.47;89.13;98437.50;4135410;28;20240;-51
2023/04/20 04:30:28;;;;;;;16.10;3.65;;;;;;;2.39;89.57;98443.09;4131688;28;20236;-51
2023/04/20 04:32:30;;;;;;;13.93;3.92;;;;;;;2.22;90.97;98432.84;4132912;28;20615;-51
2023/04/20 04:34:32;;;;;;;27.50;4.68;;;;;;;2.35;90.70;98439.13;4121321;28;20442;-51
2023/04/20 04:36:35;;;;;;;5.15;4.63;;;;;;;2.48;90.41;98441.06;4139169;28;20288;-51
2023/04/20 04:38:37;;;;;;;12.50;4.03;;;;;;;2.51;89.86;98444.19;4134515;28;20260;-51
2023/04/20 04:40:40;;;;;;;7.20;3.63;;;;;;;2.54;89.46;98434.84;4119924;28;20207;-51
2023/04/20 04:42:44;;;;;;;11.77;4.40;;;;;;;2.76;89.62;98442.63;4134358;28;20766;-50
2023/04/20 04:44:45;;;;;;;13.40;3.70;;;;;;;2.74;89.61;98441.97;4121303;28;20210;-50
2023/04/20 04:46:47;;;;;;;11.20;3.63;;;;;;;2.86;88.74;98445.78;4143616;28;20949;-50
2023/04/20 04:48:50;;;;;;;23.05;4.13;;;;;;;2.78;88.70;98445.09;4141446;28;20283;-50
2023/04/20 04:50:52;;;;;;;16.20;4.05;;;;;;;2.65;89.01;98439.66;4125796;28;20317;-51
2023/04/20 04:52:54;;;;;;;10.13;4.32;;;;;;;2.60;89.26;98432.16;4121881;28;20246;-49
2023/04/20 04:54:55;;;;;;;7.75;3.17;;;;;;;2.66;89.69;98444.88;4122175;28;20667;-50
2023/04/20 04:56:57;;;;;;;5.60;3.78;;;;;;;2.81;89.67;98440.13;4141464;28;20257;-50
2023/04/20 04:58:59;;;;;;;4.68;3.55;;;;;;;2.69;89.54;98436.38;4119069;28;20257;-50
2023/04/20 05:01:01;;;;;;;10.55;4.90;;;;;;;2.81;90.14;98440.13;4120466;28;20714;-49
2023/04/20 05:03:03;;;;;;;9.20;3.53;;;;;;;2.73;90.16;98437.63;4124067;28;20214;-50
2023/04/20 05:05:05;;;;;;;5.30;3.90;;;;;;;2.70;89.86;98440.75;4135636;28;20217;-49
2023/04/20 05:07:10;;;;;;;6.85;3.70;;;;;;;2.74;89.98;98439.28;4140349;28;20662;-50
2023/04/20 05:09:12;;;;;;;5.53;3.70;;;;;;;2.77;90.33;98441.59;4134344;28;20241;-49
2023/04/20 05:11:13;;;;;;;6.03;2.85;;;;;;;2.78;90.45;98442.41;4135573;28;20707;-51
2023/04/20 05:13:15;;;;;;;5.30;4.38;;;;;;;2.90;89.83;98438.94;4148112;28;20217;-50
2023/04/20 05:15:17;;;;;;;8.82;3.40;;;;;;;2.83;89.30;98443.50;4137460;28;20206;-50
2023/04/20 05:17:19;;;;;;;4.25;3.78;;;;;;;2.76;89.72;98442.63;4134197;28;20244;-50
2023/04/20 05:19:21;;;;;;;7.35;4.22;;;;;;;2.83;89.47;98443.50;4124684;28;20334;-52
2023/04/20 05:21:22;;;;;;;4.85;3.92;;;;;;;2.78;89.61;98437.84;4133315;28;20313;-50
2023/04/20 05:23:24;;;;;;;5.20;3.63;;;;;;;2.86;90.23;98440.38;4115559;28;20693;-50
2023/04/20 05:25:26;;;;;;;10.00;3.88;;;;;;;2.87;90.26;98441.22;4124118;28;20221;-51
2023/04/20 05:27:28;;;;;;;12.52;4.30;;;;;;;2.85;90.00;98443.25;4133055;28;20849;-50
2023/04/20 05:29:30;;;;;;;5.07;3.40;;;;;;;2.98;89.88;98446.84;4129426;28;20248;-50
2023/04/20 05:31:32;;;;;;;12.98;3.08;;;;;;;3.05;89.86;98444.16;4135561;28;20218;-50
2023/04/20 05:33:34;;;;;;;6.25;3.40;;;;;;;3.00;90.20;98449.34;4135924;28;20213;-50
2023/04/20 05:35:39;;;;;;;9.35;3.30;;;;;;;3.02;89.90;98447.28;4124827;28;20241;-49
2023/04/20 05:37:41;;;;;;;12.45;3.92;;;;;;;3.07;90.38;98451.03;4118631;28;20221;-50
2023/04/20 05:39:43;;;;;;;6.97;3.17;;;;;;;3.13;90.08;98443.97;4135087;28;20715;-49
2023/04/20 05:41:46;;;;;;;11.70;4.78;;;;;;;3.17;90.46;98445.22;4153022;28;20260;-51
2023/04/20 05:43:51;;;;;;;9.50;4.38;;;;;;;3.13;90.60;98444.78;4143400;28;20213;-51
2023/04/20 05:45:54;;;;;;;7.13;3.22;;;;;;;3.15;90.89;98442.72;4152634;28;20209;-50
2023/04/20 05:47:56;;;;;;;9.05;3.78;;;;;;;3.20;90.77;98451.03;4121250;28;20230;-49
2023/04/20 05:49:59;;;;;;;12.82;4.03;;;;;;;3.35;90.57;98443.56;4138784;28;20296;-51
2023/04/20 05:52:01;;;;;;;6.15;3.88;;;;;;;3.39;90.74;98444.84;4126468;28;20226;-50
2023/04/20 05:54:03;;;;;;;4.57;3.35;;;;;;;3.44;91.06;98445.06;4142274;28;20284;-51
2023/04/20 05:56:13;;;;;;;4.93;3.63;;;;;;;3.56;91.15;98438.00;4144454;28;20264;-50
2023/04/20 05:58:17;;;;;;;8.18;3.95;;;;;;;3.55;90.68;98443.59;4136006;28;20233;-51
2023/04/20 06:00:20;;;;;;;8.68;4.18;;;;;;;3.70;91.63;98442.38;4130243;28;20245;-50
2023/04/20 06:02:24;;;;;;;5.47;3.55;;;;;;;3.67;91.52;98445.47;4136716;28;20237;-50
2023/04/20 06:04:27;;;;;;;5.60;3.22;;;;;;;3.86;91.99;98433.81;4141062;28;20296;-50
2023/04/20 06:06:29;;;;;;;7.55;3.60;;;;;;;3.96;90.49;98442.34;4118533;28;20238;-50
2023/04/20 06:08:31;;;;;;;4.88;3.72;;;;;;;3.85;90.74;98439.41;4137528;28;20236;-50
2023/04/20 06:10:33;;;;;;;6.13;3.25;;;;;;;3.98;90.96;98434.84;4137618;28;20216;-50
2023/04/20 06:12:39;;;;;;;8.20;3.75;;;;;;;4.06;90.18;98431.91;4136793;28;20878;-52
2023/04/20 06:14:42;;;;;;;3.67;3.38;;;;;;;4.08;90.57;98429.00;4126765;28;20639;-50
2023/04/20 06:16:44;;;;;;;6.25;5.78;;;;;;;4.19;90.93;98437.28;4124122;28;20261;-50
2023/04/20 06:18:46;;;;;;;10.90;4.57;;;;;;;4.17;90.14;98428.56;4146830;28;20319;-50
2023/04/20 06:20:48;;;;;;;5.20;3.90;;;;;;;4.28;90.01;98425.19;4140040;28;20300;-50
2023/04/20 06:22:50;;;;;;;6.93;3.33;;;;;;;4.30;89.88;98428.53;4124356;28;20735;-50
2023/04/20 06:24:52;;;;;;;5.68;4.35;;;;;;;4.35;89.99;98420.56;4124303;28;20214;-51
2023/04/20 06:26:54;;;;;;;3.67;3.40;;;;;;;4.43;90.12;98420.38;4120157;28;20310;-51
2023/04/20 06:28:56;;;;;;;5.60;4.15;;;;;;;4.48;89.89;98415.09;4136552;28;20233;-50
2023/04/20 06:30:57;;;;;;;3.97;3.67;;;;;;;4.58;89.25;98414.66;4121066;28;20626;-50
2023/04/20 06:33:07;;;;;;;4.40;4.00;;;;;;;4.59;89.28;98417.16;4135541;28;20584;-50
2023/04/20 06:35:12;;;;;;;3.10;2.80;;;;;;;4.66;89.28;98417.97;4129298;28;20205;-50
2023/04/20 06:37:15;;;;;;;4.32;4.03;;;;;;;4.73;89.28;98416.06;4137272;28;20679;-50
2023/04/20 06:39:16;;;;;;;9.27;4.68;;;;;;;4.79;89.41;98417.91;4138996;28;20229;-50
2023/04/20 06:41:27;;;;;;;4.63;4.22;;;;;;;4.81;88.82;98415.78;4124422;28;20560;-51
2023/04/20 06:43:29;;;;;;;12.20;5.63;;;;;;;4.88;88.89;98410.34;4123300;28;20618;-51
2023/04/20 06:45:31;;;;;;;6.20;5.53;;;;;;;4.97;89.07;98419.91;4143068;28;20224;-50
2023/04/20 06:47:35;;;;;;;5.43;4.07;;;;;;;5.07;88.92;98410.22;4134755;28;22363;-50
2023/04/20 06:49:38;;;;;;;7.38;4.00;;;;;;;5.17;89.55;98416.03;4138588;28;20233;-50
2023/04/20 06:51:42;;;;;;;4.07;3.78;;;;;;;5.35;89.23;98408.78;4142756;28;20229;-50
2023/04/20 06:53:44;;;;;;;4.40;4.00;;;;;;;5.43;90.15;98407.72;4135829;28;20224;-50
2023/04/20 06:55:52;;;;;;;12.88;4.82;;;;;;;5.58;90.60;98409.06;4127081;28;20214;-50
2023/04/20 06:57:54;;;;;;;7.38;4.80;;;;;;;5.72;90.09;98413.31;4136368;28;20232;-51
2023/04/20 06:59:57;;;;;;;5.25;4.85;;;;;;;5.58;89.44;98408.22;4137764;28;20272;-50
2023/04/20 07:02:00;;;;;;;5.88;4.70;;;;;;;5.71;90.18;98399.97;4138708;28;20206;-50
2023/04/20 07:04:02;;;;;;;5.03;4.63;;;;;;;5.69;90.11;98405.59;4123481;28;20670;-50
2023/04/20 07:06:06;;;;;;;5.78;4.60;;;;;;;5.80;90.57;98407.63;4144637;28;20211;-52
2023/04/20 07:08:08;;;;;;;4.80;4.32;;;;;;;5.87;90.11;98410.28;4138398;28;20324;-50
2023/04/20 07:10:15;;;;;;;5.93;4.50;;;;;;;5.80;91.03;98401.34;4143735;28;20646;-50
2023/04/20 07:12:18;;;;;;;8.60;4.80;;;;;;;5.90;90.03;98407.13;4139808;28;20233;-50
2023/04/20 07:14:20;;;;;;;7.32;6.00;;;;;;;5.87;90.93;98407.56;4122376;28;20803;-49
2023/04/20 07:16:21;;;;;;;5.55;5.15;;;;;;;5.96;90.31;98400.81;4121414;28;20221;-49
2023/04/20 07:18:24;;;;;;;6.38;5.10;;;;;;;5.90;91.39;98398.97;4138215;28;20272;-49
2023/04/20 07:20:25;;;;;;;5.75;5.35;;;;;;;5.99;92.12;98400.34;4132366;28;20237;-50
2023/04/20 07:22:27;;;;;;;6.55;6.03;;;;;;;6.01;91.58;98406.38;4134012;28;20205;-49
2023/04/20 07:24:29;;;;;;;4.93;4.47;;;;;;;6.07;91.89;98402.75;4138529;28;20650;-50
2023/04/20 07:26:31;;;;;;;6.50;5.95;;;;;;;6.13;91.56;98407.31;4119201;28;20214;-50
2023/04/20 07:28:32;;;;;;;8.52;4.80;;;;;;;5.77;92.58;98408.03;4118882;28;20317;-50
2023/04/20 07:30:34;;;;;;;5.57;5.18;;;;;;;5.87;92.29;98407.56;4129725;28;20707;-50
2023/04/20 07:32:38;;;;;;;7.68;5.35;;;;;;;5.93;92.63;98407.50;4133123;28;20283;-50
2023/04/20 07:34:39;;;;;;;6.25;5.65;;;;;;;5.81;94.04;98408.44;4133933;28;20279;-50
2023/04/20 07:36:41;;;;;;;9.25;5.70;;;;;;;5.92;94.35;98410.44;4131733;28;21885;-50
2023/04/20 07:38:43;;;;;;;6.65;5.55;;;;;;;6.01;93.61;98403.66;4140152;28;20308;-50
2023/04/20 07:40:44;;;;;;;6.22;5.72;;;;;;;6.15;94.25;98405.22;4125771;28;20218;-50
2023/04/20 07:42:46;;;;;;;6.35;5.75;;;;;;;6.15;92.63;98399.78;4121205;28;20284;-50
2023/04/20 07:44:48;;;;;;;5.32;4.82;;;;;;;6.05;92.02;98399.44;4123431;28;20264;-50
2023/04/20 07:46:50;;;;;;;5.65;5.18;;;;;;;6.03;92.50;98399.66;4123337;28;20293;-51
2023/04/20 07:48:51;;;;;;;6.07;5.57;;;;;;;6.19;92.78;98398.25;4134221;28;20704;-49
2023/04/20 07:50:53;;;;;;;5.32;4.88;;;;;;;6.15;92.88;98397.88;4135150;28;20692;-50
2023/04/20 07:52:55;;;;;;;5.60;5.20;;;;;;;6.20;92.18;98397.19;4119717;28;20254;-50
2023/04/20 07:54:58;;;;;;;6.20;4.72;;;;;;;6.30;92.43;98402.97;4137824;28;20308;-50
2023/04/20 07:57:00;;;;;;;5.45;5.05;;;;;;;6.43;91.97;98402.81;4142835;28;20698;-49
2023/04/20 07:59:02;;;;;;;5.47;4.97;;;;;;;6.55;91.12;98406.44;4132746;28;20605;-49
2023/04/20 08:01:07;;;;;;;5.45;4.95;;;;;;;6.49;91.80;98404.63;4140998;28;20205;-49
2023/04/20 08:03:09;;;;;;;5.13;4.72;;;;;;;6.35;90.77;98405.84;4135852;28;20205;-49
2023/04/20 08:05:13;;;;;;;4.68;4.28;;;;;;;6.51;91.12;98403.34;4129028;28;20221;-49
2023/04/20 08:07:15;;;;;;;4.97;4.57;;;;;;;6.45;90.84;98406.13;4140610;28;20214;-49
2023/04/20 08:09:17;;;;;;;4.90;4.50;;;;;;;6.68;90.47;98395.41;4138990;28;20237;-49
2023/04/20 08:11:20;;;;;;;5.43;4.93;;;;;;;7.08;90.77;98399.25;4136515;28;20201;-49
2023/04/20 08:13:22;;;;;;;4.85;4.45;;;;;;;7.04;88.90;98400.75;4136866;28;20240;-49
2023/04/20 08:15:24;;;;;;;7.18;4.05;;;;;;;7.09;89.27;98398.19;4127047;28;20211;-50
2023/04/20 08:17:33;;;;;;;5.18;4.70;;;;;;;7.22;88.83;98392.56;4138276;28;20248;-49
2023/04/20 08:19:39;;;;;;;4.90;4.50;;;;;;;7.25;88.13;98392.09;4134966;28;20353;-50
2023/04/20 08:21:45;;;;;;;5.47;4.97;;;;;;;7.02;88.68;98400.16;4137181;28;20210;-49
2023/04/20 08:23:47;;;;;;;6.10;5.60;;;;;;;7.14;89.07;98401.88;4133656;28;20248;-49
2023/04/20 08:25:49;;;;;;;5.38;4.97;;;;;;;7.41;88.48;98407.78;4120536;28;20211;-49
2023/04/20 08:27:51;;;;;;;9.02;5.10;;;;;;;7.62;88.69;98405.31;4141927;28;20241;-49
2023/04/20 08:29:53;;;;;;;5.93;5.43;;;;;;;7.58;88.16;98403.28;4133711;28;20297;-50
2023/04/20 08:31:55;;;;;;;5.18;4.68;;;;;;;7.41;87.15;98416.75;4136301;28;20646;-49
2023/04/20 08:33:58;;;;;;;4.80;4.43;;;;;;;7.26;88.64;98415.50;4121344;28;20210;-49
2023/04/20 08:36:00;;;;;;;8.60;5.70;;;;;;;7.27;87.97;98406.28;4136541;28;20337;-49
2023/04/20 08:38:03;;;;;;;5.60;5.10;;;;;;;7.01;88.35;98401.22;4137268;28;20629;-49
2023/04/20 08:40:07;;;;;;;6.03;5.45;;;;;;;6.98;89.76;98409.84;4140934;28;20415;-49
2023/04/20 08:42:09;;;;;;;6.90;6.40;;;;;;;7.19;89.13;98403.88;4127647;28;20207;-49
2023/04/20 08:44:11;;;;;;;5.88;5.47;;;;;;;7.16;88.93;98398.91;4120949;28;20249;-49
2023/04/20 08:46:13;;;;;;;6.15;5.65;;;;;;;7.13;89.90;98407.53;4134087;28;20264;-49
2023/04/20 08:48:16;;;;;;;8.85;8.10;;;;;;;7.07;90.19;98405.72;4119112;28;20238;-49
2023/04/20 08:50:19;;;;;;;5.68;5.20;;;;;;;7.01;90.83;98406.66;4136474;28;20213;-50
2023/04/20 08:52:21;;;;;;;6.85;6.35;;;;;;;6.77;91.61;98410.34;4137154;28;20244;-49
2023/04/20 08:54:23;;;;;;;7.28;6.68;;;;;;;6.97;91.46;98405.47;4108612;28;20580;-50
2023/04/20 08:56:39;;;;;;;6.55;6.05;;;;;;;7.26;92.08;98400.03;4127334;28;20264;-49
2023/04/20 08:58:41;;;;;;;6.90;6.32;;;;;;;8.55;90.41;98373.47;4132395;28;20261;-51
2023/04/20 09:00:47;;;;;;;5.95;5.55;;;;;;;8.98;85.17;98380.09;4140855;28;20292;-50
2023/04/20 09:02:54;;;;;;;5.22;4.72;;;;;;;9.22;83.29;98375.38;4142124;28;20256;-50
2023/04/20 09:05:03;;;;;;;6.32;5.82;;;;;;;9.07;81.88;98380.50;4133780;28;20223;-49
2023/04/20 09:07:15;;;;;;;6.38;5.88;;;;;;;8.70;83.08;98369.13;4134370;28;20296;-49
2023/04/20 09:09:18;;;;;;;5.68;5.20;;;;;;;8.50;81.45;98376.88;4118003;28;20301;-50
2023/04/20 09:11:24;;;;;;;5.85;5.38;;;;;;;8.58;82.86;98367.53;4138914;28;20213;-50
2023/04/20 09:13:25;;;;;;;5.30;4.85;;;;;;;8.75;83.24;98368.44;4140579;28;20780;-49
2023/04/20 09:15:29;;;;;;;7.03;6.55;;;;;;;8.70;82.73;98371.06;4121100;28;20289;-49
2023/04/20 09:17:35;;;;;;;6.18;5.68;;;;;;;8.19;85.38;98368.25;4137486;28;20275;-49
2023/04/20 09:19:43;;;;;;;6.45;5.80;;;;;;;8.08;85.50;98360.94;4137788;28;20217;-49
2023/04/20 09:21:49;;;;;;;6.97;6.25;;;;;;;8.34;84.24;98365.94;4126202;28;20698;-50
2023/04/20 09:24:01;;;;;;;9.57;5.97;;;;;;;8.63;84.55;98362.19;4141359;28;20217;-49
2023/04/20 09:26:03;;;;;;;6.78;5.80;;;;;;;8.62;84.23;98368.72;4152255;28;20291;-50
2023/04/20 09:28:05;;;;;;;5.70;5.25;;;;;;;8.75;84.00;98357.53;4135115;28;20364;-50
2023/04/20 09:30:08;;;;;;;6.05;5.55;;;;;;;8.49;84.03;98355.34;4144973;28;20679;-50
2023/04/20 09:32:31;;;;;;;7.45;6.85;;;;;;;8.77;82.09;98355.38;4139445;28;20213;-50
2023/04/20 09:34:45;;;;;;;9.65;6.60;;;;;;;8.53;82.34;98354.63;4151903;28;20250;-49
2023/04/20 09:36:50;;;;;;;6.40;5.65;;;;;;;8.75;82.95;98352.06;4140977;28;20638;-50
2023/04/20 09:39:29;;;;;;;8.07;5.93;;;;;;;8.99;81.60;98350.88;4148261;28;20237;-49
2023/04/20 09:41:31;;;;;;;5.72;5.32;;;;;;;8.78;80.43;98351.56;4137297;28;20296;-50